Bookmark and Share
Track history (hours):
 

Nautilus

Last reported at 2014-Apr-17 14:33 UTC. Time now 2014-Apr-17 21:55 UTC.
Position N 55°37' E 018°50'.

Length 120 m; draft 5.1 m.

Type: Ship. MMSI: 219425000.

NotesDate/timePositionNaut miles runAvg speedWind from/ knotsBaromVisibWave heightAir tempDewpointWater temp
2014-Apr-17 14:33N 55°37' E 018°50'9213.2
2014-Apr-17 07:33N 55°28' E 016°08'1313.2
2014-Apr-17 06:33N 55°27' E 015°45'1413.5
2014-Apr-17 05:33N 55°25' E 015°21'1413.6
2014-Apr-17 04:33N 55°24' E 014°57'1312.6
2014-Apr-17 03:33N 55°20' E 014°36'1313.4
2014-Apr-17 02:34N 55°10' E 014°20'1312.9
2014-Apr-17 01:34N 55°10' E 013°58'1312.9
2014-Apr-17 00:34N 55°10' E 013°35'1313.0
2014-Apr-16 23:34N 55°12' E 013°13'1313.4
2014-Apr-16 22:34N 55°16' E 012°50'10 9.8
2014-Apr-16 21:34N 55°23' E 012°39'1212.2
2014-Apr-16 20:34N 55°35' E 012°42'1212.1
2014-Apr-16 19:34N 55°47' E 012°42'1312.7
2014-Apr-16 18:34N 56°00' E 012°40'1312.6
2014-Apr-16 17:33N 56°10' E 012°26'1313.2
2014-Apr-16 16:33N 56°23' E 012°19'1413.3
2014-Apr-16 15:32N 56°36' E 012°12'1313.1
2014-Apr-16 14:33N 56°48' E 012°06'1312.9
2014-Apr-16 13:31N 57°01' E 011°59'1212.6
2014-Apr-16 12:33N 57°12' E 011°52'1312.7
2014-Apr-16 11:33N 57°24' E 011°43'1211.6
2014-Apr-16 10:33N 57°36' E 011°41'0 0.1
2014-Apr-16 09:33N 57°36' E 011°41'0 0.0
2014-Apr-16 08:33N 57°36' E 011°41'7 7.3
2014-Apr-16 07:33N 57°40' E 011°29'1413.7
2014-Apr-16 06:33N 57°53' E 011°20'1313.2
2014-Apr-16 05:33N 58°05' E 011°11'1312.8
2014-Apr-16 04:32N 58°17' E 011°03'1313.1
2014-Apr-16 03:33N 58°29' E 010°54'1313.2
2014-Apr-16 02:33N 58°42' E 010°47'1313.3
2014-Apr-16 01:33N 58°55' E 010°40'1512.8
2014-Apr-16 00:25N 59°09' E 010°36'1111.3
2014-Apr-15 23:28N 59°20' E 010°31'0 0.0
2014-Apr-15 19:31N 59°20' E 010°31'5 0.3
2014-Apr-15 03:32N 59°15' E 010°35'7310.4
2014-Apr-14 20:34N 58°04' E 011°07'1110.5
2014-Apr-14 19:34N 57°54' E 011°13'1010.1
2014-Apr-14 18:34N 57°44' E 011°19'10 9.7
2014-Apr-14 17:34N 57°35' E 011°25'10 9.9
2014-Apr-14 16:34N 57°27' E 011°36'1010.1
2014-Apr-14 15:33N 57°19' E 011°47'1010.0
2014-Apr-14 14:33N 57°10' E 011°56'1010.0
2014-Apr-14 13:34N 57°01' E 012°01'2110.1
2014-Apr-14 11:30N 56°41' E 012°12'1010.3
2014-Apr-14 10:33N 56°31' E 012°17'1111.5
2014-Apr-14 09:34N 56°20' E 012°23'1211.8
2014-Apr-14 08:33N 56°09' E 012°31'1010.3
2014-Apr-14 07:34N 56°01' E 012°41'1110.7
2014-Apr-14 06:34N 55°50' E 012°43'1111.0
2014-Apr-14 05:34N 55°39' E 012°42'63 9.0
2014-Apr-13 22:33N 55°22' E 014°29'1010.4
2014-Apr-13 21:34N 55°29' E 014°42'1111.1
2014-Apr-13 20:33N 55°34' E 014°59'1110.8
2014-Apr-13 19:34N 55°39' E 015°16'2710.9
2014-Apr-13 17:06N 55°52' E 015°58'610.7
2014-Apr-13 16:34N 55°55' E 016°07'1010.4
2014-Apr-13 15:33N 56°01' E 016°22'31210.4
2014-Apr-12 09:32N 59°38' E 023°22'1111.4
2014-Apr-12 08:33N 59°41' E 023°43'2311.3
2014-Apr-12 06:34N 59°47' E 024°26'1111.5
2014-Apr-12 05:34N 59°50' E 024°48'1711.4
2014-Apr-12 04:06N 59°56' E 025°19'11 0.4
2014-Apr-11 03:14N 60°03' E 025°34'3 0.3
2014-Apr-10 16:27N 60°01' E 025°31'28 5.8
2014-Apr-10 11:33N 60°12' E 026°23'1312.6
2014-Apr-10 10:33N 60°21' E 026°40'1312.7
2014-Apr-10 09:32N 60°23' E 027°06'9 8.8
2014-Apr-10 08:33N 60°31' E 027°10'0 0.0
2014-Apr-10 07:31N 60°31' E 027°10'0 0.0
2014-Apr-10 06:31N 60°31' E 027°10'0 0.0
2014-Apr-10 05:31N 60°31' E 027°10'0 0.0
2014-Apr-10 04:31N 60°31' E 027°10'0 0.0
2014-Apr-10 03:31N 60°31' E 027°10'0 0.0
2014-Apr-10 02:22N 60°31' E 027°10'0 0.0
2014-Apr-10 01:31N 60°31' E 027°10'0 0.0
2014-Apr-09 23:25N 60°31' E 027°10'0 0.0
2014-Apr-09 22:19N 60°31' E 027°10'0 0.0
2014-Apr-09 21:25N 60°31' E 027°10'0 0.0
2014-Apr-09 20:31N 60°31' E 027°10'0 0.0
2014-Apr-09 19:22N 60°31' E 027°10'0 0.0
2014-Apr-09 18:22N 60°31' E 027°10'2 2.9
2014-Apr-09 17:34N 60°29' E 027°08'9 9.4
2014-Apr-09 16:33N 60°22' E 026°55'1111.0
2014-Apr-09 15:34N 60°19' E 026°34'9 9.2
2014-Apr-09 14:33N 60°12' E 026°22'0 0.5
2014-Apr-09 13:33N 60°12' E 026°21'0 0.0
2014-Apr-09 12:32N 60°12' E 026°21'0 0.0
2014-Apr-09 11:32N 60°12' E 026°21'0 0.0
2014-Apr-09 10:32N 60°12' E 026°21'0 0.0
2014-Apr-09 09:32N 60°12' E 026°21'0 0.0
2014-Apr-09 08:32N 60°12' E 026°21'0 0.0
2014-Apr-09 07:26N 60°12' E 026°21'0 0.0
2014-Apr-09 06:32N 60°12' E 026°21'0 0.0
2014-Apr-09 05:32N 60°12' E 026°21'0 0.0
2014-Apr-09 04:32N 60°12' E 026°21'0 0.0
2014-Apr-09 03:32N 60°12' E 026°21'0 0.0
2014-Apr-09 02:32N 60°12' E 026°21'0 0.0
2014-Apr-09 01:32N 60°12' E 026°21'0 0.0
2014-Apr-09 00:32N 60°12' E 026°21'0 0.0
2014-Apr-08 23:20N 60°12' E 026°21'0 0.0
2014-Apr-08 22:26N 60°12' E 026°21'0 0.0
2014-Apr-08 21:32N 60°12' E 026°21'0 0.0
2014-Apr-08 20:32N 60°12' E 026°21'0 0.0
2014-Apr-08 19:32N 60°12' E 026°21'0 0.0
2014-Apr-08 18:32N 60°12' E 026°21'0 0.1
2014-Apr-08 17:32N 60°12' E 026°21'0 0.0
2014-Apr-08 16:34N 60°12' E 026°21'0 0.0
2014-Apr-08 15:33N 60°12' E 026°21'7 7.2
2014-Apr-08 14:33N 60°05' E 026°21'5410.8
2014-Apr-08 09:34N 59°45' E 024°41'1211.4
2014-Apr-08 08:32N 59°43' E 024°18'1111.3
2014-Apr-08 07:34N 59°39' E 023°57'1111.2
2014-Apr-08 06:33N 59°35' E 023°36'  

Dump ship's entire track history

sailing weather and tide predictions

Nautilus — OUYX2 — position and weather